Have a Safe July 4th! 

Flight Track Log - Related Links

Times and Time Zones

All times are in EST time to prevent confusion due to time zone crossing. See the N114WE flight status page for this flight to view local times or setup timezone preferences in your user account.

Time Position Orientation Groundspeed Altitude Reporting Facility
EST Latitude Longitude Course Direction KTS MPH feet Rate Location/Type
Sun 02:57:13 PM 39.1167 -94.6000 218° Southwest 97 112 1,300  Level Kansas City TRACON
Sun 02:57:50 PM 39.1000 -94.6167 218° Southwest 111 128 2,000 928 Climbing Kansas City TRACON
Sun 02:58:50 PM 39.0667 -94.6500 218° Southwest 136 157 2,800 850 Climbing Kansas City TRACON
Sun 02:59:50 PM 39.0500 -94.7000 247° West 141 162 3,700 800 Climbing Kansas City TRACON
Sun 03:00:20 PM 39.0375 -94.7128 218° Southwest 137 158 4,000 587 Climbing Kansas City Center
Sun 03:01:22 PM 39.0039 -94.7328 205° Southwest 140 161 4,600 677 Climbing Kansas City Center
Sun 03:02:24 PM 38.9642 -94.7472 196° South 131 151 5,400 726 Climbing Kansas City Center
Sun 03:03:26 PM 38.9308 -94.7594 196° South 130 150 6,100 726 Climbing Kansas City Center
Sun 03:04:28 PM 38.8917 -94.7703 192° South 128 147 6,900 677 Climbing Kansas City Center
Sun 03:05:30 PM 38.8600 -94.7803 194° South 123 142 7,500 677 Climbing Kansas City Center
Sun 03:06:32 PM 38.8236 -94.7928 195° South 121 139 8,300 624 Climbing Kansas City Center
Sun 03:07:35 PM 38.7928 -94.8022 193° South 119 137 8,800 576 Climbing Kansas City Center
Sun 03:08:37 PM 38.7561 -94.8122 192° South 120 138 9,500 581 Climbing Kansas City Center
Sun 03:09:39 PM 38.7250 -94.8225 194° South 120 138 10,000 242 Climbing Kansas City Center
Sun 03:10:41 PM 38.6825 -94.8350 193° South 141 162 10,000  Level Kansas City Center
Sun 03:11:43 PM 38.6447 -94.8456 192° South 145 167 10,000  Level Kansas City Center
Sun 03:12:45 PM 38.6056 -94.8581 194° South 151 174 10,000  Level Kansas City Center
Sun 03:13:47 PM 38.5608 -94.8703 192° South 147 169 10,000  Level Kansas City Center
Sun 03:14:49 PM 38.5219 -94.8831 194° South 150 173 10,000  Level Kansas City Center
Sun 03:15:51 PM 38.4775 -94.8956 192° South 146 168 10,000  Level Kansas City Center
Sun 03:16:53 PM 38.4386 -94.9075 194° South 151 174 10,000  Level Kansas City Center
Sun 03:17:55 PM 38.3944 -94.9203 193° South 144 166 10,000  Level Kansas City Center
Sun 03:18:57 PM 38.3553 -94.9322 193° South 149 171 10,000  Level Kansas City Center
Sun 03:19:59 PM 38.3108 -94.9458 194° South 146 168 10,000  Level Kansas City Center
Sun 03:21:01 PM 38.2722 -94.9564 192° South 147 169 10,000  Level Kansas City Center
Sun 03:22:03 PM 38.2267 -94.9678 191° South 149 171 10,000  Level Kansas City Center
Sun 03:23:05 PM 38.1881 -94.9786 192° South 148 170 10,000  Level Kansas City Center
Sun 03:24:07 PM 38.1408 -94.9933 194° South 155 178 10,000  Level Kansas City Center
Sun 03:25:09 PM 38.1031 -95.0064 195° South 150 173 10,000  Level Kansas City Center
Sun 03:26:11 PM 38.0572 -95.0181 191° South 150 173 10,000  Level Kansas City Center
Sun 03:27:13 PM 38.0181 -95.0303 194° South 150 173 10,000  Level Kansas City Center
Sun 03:28:15 PM 37.9781 -95.0408 192° South 152 175 10,000  Level Kansas City Center
Sun 03:29:17 PM 37.9311 -95.0531 192° South 154 177 10,000  Level Kansas City Center
Sun 03:30:19 PM 37.8928 -95.0647 194° South 150 173 10,000  Level Kansas City Center
Sun 03:31:21 PM 37.8475 -95.0769 192° South 149 171 10,000  Level Kansas City Center
Sun 03:32:23 PM 37.8089 -95.0911 196° South 149 171 10,000  Level Kansas City Center
Sun 03:33:25 PM 37.7639 -95.1047 193° South 149 171 10,000  Level Kansas City Center
Sun 03:34:27 PM 37.7233 -95.1144 191° South 151 174 10,000  Level Kansas City Center
Sun 03:35:29 PM 37.6833 -95.1272 194° South 149 171 10,000  Level Kansas City Center
Sun 03:36:31 PM 37.6422 -95.1383 192° South 151 174 10,000  Level Kansas City Center
Sun 03:37:33 PM 37.5936 -95.1525 193° South 149 171 10,000  Level Kansas City Center
Sun 03:38:35 PM 37.5544 -95.1628 192° South 145 167 10,000  Level Kansas City Center
Sun 03:39:37 PM 37.5136 -95.1742 192° South 149 171 10,000  Level Kansas City Center
Sun 03:40:39 PM 37.4733 -95.1867 194° South 149 171 10,000  Level Kansas City Center
Sun 03:41:41 PM 37.4319 -95.1967 191° South 150 173 10,000  Level Kansas City Center
Sun 03:42:43 PM 37.3914 -95.2086 193° South 150 173 10,000  Level Kansas City Center
Sun 03:43:45 PM 37.3508 -95.2217 194° South 149 171 10,000  Level Kansas City Center
Sun 03:44:47 PM 37.3008 -95.2369 194° South 153 176 10,000  Level Kansas City Center
Sun 03:45:49 PM 37.2597 -95.2486 193° South 153 176 10,000  Level Kansas City Center
Sun 03:46:51 PM 37.2211 -95.2589 192° South 144 166 10,000  Level Kansas City Center
Sun 03:47:53 PM 37.1797 -95.2706 193° South 150 173 10,000  Level Kansas City Center
Sun 03:48:56 PM 37.1394 -95.2828 194° South 149 171 10,000  Level Kansas City Center
Sun 03:49:58 PM 37.0994 -95.2961 195° South 148 170 10,000  Level Kansas City Center
Sun 03:51:00 PM 37.0506 -95.3097 193° South 149 171 10,000  Level Kansas City Center
Sun 03:52:02 PM 37.0097 -95.3222 194° South 150 173 10,000  Level Kansas City Center
Sun 03:53:04 PM 36.9689 -95.3322 191° South 150 173 10,000  Level Kansas City Center
Sun 03:54:06 PM 36.9258 -95.3450 193° South 154 177 10,000  Level Kansas City Center
Sun 03:55:08 PM 36.8850 -95.3564 193° South 153 176 10,000 -48 Level Kansas City Center
Sun 03:56:10 PM 36.8444 -95.3675 192° South 150 173 9,900 -48 Descending Kansas City Center
Sun 03:57:12 PM 36.8036 -95.3794 193° South 150 173 9,900  Level Kansas City Center
Sun 03:58:11 PM 36.7544 -95.3936 193° South 152 175 9,900  Level Kansas City Center
Sun 03:58:14 PM 36.7544 -95.3931 90° East 150 173 9,900  Level Kansas City Center
Sun 03:59:16 PM 36.7133 -95.4050 193° South 150 173 9,900  Level Kansas City Center
Sun 04:00:18 PM 36.6719 -95.4167 193° South 151 174 9,900  Level Kansas City Center
Sun 04:01:13 PM 36.6317 -95.4286 193° South 151 174 9,900  Level Kansas City Center
Sun 04:01:20 PM 36.6317 -95.4289 270° West 150 173 9,900  Level Kansas City Center
Sun 04:02:14 PM 36.5906 -95.4394 192° South 153 176 9,900  Level Kansas City Center
Sun 04:02:22 PM 36.5908 -95.4400 302° West 149 171 9,900  Level Kansas City Center
Sun 04:03:15 PM 36.5494 -95.4503 191° South 153 176 9,900  Level Kansas City Center
Sun 04:03:24 PM 36.5478 -95.4519 219° Southwest 155 178 9,900  Level Kansas City Center
Sun 04:04:16 PM 36.5044 -95.4642 193° South 153 176 9,900  Level Kansas City Center
Sun 04:04:26 PM 36.4983 -95.4661 194° South 153 176 9,900  Level Kansas City Center
Sun 04:05:17 PM 36.4614 -95.4753 191° South 157 181 9,900  Level Kansas City Center
Sun 04:05:28 PM 36.4567 -95.4781 205° Southwest 155 178 9,900  Level Kansas City Center
Sun 04:07:12 PM 36.3797 -95.4994 193° South 157 181 9,900  Level Kansas City Center
Sun 04:07:32 PM 36.3722 -95.5017 193° South 159 183 9,900  Level Kansas City Center
Sun 04:08:13 PM 36.3367 -95.5128 194° South 157 181 9,900  Level Kansas City Center
Sun 04:08:34 PM 36.3217 -95.5153 188° South 156 180 9,900  Level Kansas City Center
Sun 04:09:14 PM 36.2936 -95.5239 194° South 160 184 9,900  Level Kansas City Center
Sun 04:09:36 PM 36.2775 -95.5281 192° South 161 185 9,900  Level Kansas City Center
Sun 04:10:15 PM 36.2506 -95.5350 192° South 159 183 9,900  Level Kansas City Center
Sun 04:10:38 PM 36.2344 -95.5397 193° South 160 184 9,900  Level Kansas City Center
Sun 04:11:15 PM 36.2056 -95.5486 194° South 161 185 9,900  Level Kansas City Center
Sun 04:11:40 PM 36.1911 -95.5514 189° South 159 183 9,900  Level Kansas City Center
Sun 04:12:16 PM 36.1583 -95.5603 192° South 161 185 9,900  Level Kansas City Center
Sun 04:12:42 PM 36.1472 -95.5639 195° South 161 185 9,900  Level Kansas City Center
Sun 04:13:17 PM 36.1156 -95.5739 194° South 161 185 9,900  Level Kansas City Center
Sun 04:13:44 PM 36.1039 -95.5753 185° South 160 184 9,900  Level Kansas City Center
Sun 04:14:18 PM 36.0725 -95.5847 194° South 161 185 9,900  Level Kansas City Center
Sun 04:14:46 PM 36.0606 -95.5878 192° South 160 184 9,900  Level Kansas City Center
Sun 04:15:18 PM 36.0294 -95.5981 195° South 159 183 9,900  Level Kansas City Center
Sun 04:15:48 PM 36.0089 -95.6017 188° South 159 183 9,900  Level Kansas City Center
Sun 04:16:19 PM 35.9864 -95.6092 195° South 158 182 9,900  Level Kansas City Center
Sun 04:16:50 PM 35.9658 -95.6139 191° South 159 183 9,900  Level Kansas City Center
Sun 04:17:20 PM 35.9414 -95.6228 196° South 160 184 9,900  Level Kansas City Center
Sun 04:17:52 PM 35.9217 -95.6256 187° South 159 183 9,900  Level Kansas City Center
Sun 04:18:21 PM 35.8983 -95.6336 196° South 160 184 9,900  Level Kansas City Center
Sun 04:18:54 PM 35.8783 -95.6378 190° South 159 183 9,900  Level Kansas City Center
Sun 04:19:22 PM 35.8511 -95.6453 193° South 160 184 9,900  Level Kansas City Center
Sun 04:19:56 PM 35.8347 -95.6497 192° South 160 184 9,900  Level Kansas City Center
Sun 04:20:22 PM 35.8081 -95.6586 195° South 160 184 9,900  Level Kansas City Center
Sun 04:20:58 PM 35.7908 -95.6614 187° South 160 184 9,900  Level Kansas City Center
Sun 04:22:00 PM 35.7394 -95.6756 193° South 159 183 9,900  Level Kansas City Center
Sun 04:23:02 PM 35.6964 -95.6881 193° South 159 183 9,900  Level Kansas City Center
Sun 04:24:04 PM 35.6539 -95.6992 192° South 157 181 9,900  Level Kansas City Center
Sun 04:25:06 PM 35.6108 -95.7117 193° South 158 182 9,900  Level Kansas City Center
Sun 04:26:08 PM 35.5681 -95.7233 193° South 158 182 9,900  Level Kansas City Center
Sun 04:27:10 PM 35.5250 -95.7347 192° South 158 182 9,900  Level Kansas City Center
Sun 04:28:12 PM 35.4822 -95.7464 193° South 158 182 9,900  Level Kansas City Center
Sun 04:29:14 PM 35.4311 -95.7600 192° South 157 181 9,900  Level Kansas City Center
Sun 04:30:26 PM 35.3831 -95.7789 198° South 159 183 9,900  Level Fort Worth Center
Sun 04:31:25 PM 35.3394 -95.7875 189° South 159 183 9,900  Level Fort Worth Center
Sun 04:32:25 PM 35.2978 -95.7958 189° South 159 183 9,900  Level Fort Worth Center
Sun 04:33:26 PM 35.2522 -95.8094 194° South 159 183 9,900  Level Fort Worth Center
Sun 04:34:25 PM 35.2106 -95.8228 195° South 159 183 9,900  Level Fort Worth Center
Sun 04:35:25 PM 35.1669 -95.8339 192° South 159 183 9,900  Level Fort Worth Center
Sun 04:36:26 PM 35.1253 -95.8472 195° South 159 183 9,900  Level Fort Worth Center
Sun 04:37:25 PM 35.0858 -95.8558 190° South 159 183 9,900  Level Fort Worth Center
Sun 04:38:25 PM 35.0442 -95.8692 195° South 159 183 9,900  Level Fort Worth Center
Sun 04:39:26 PM 35.0006 -95.8800 192° South 159 183 9,900  Level Fort Worth Center
Sun 04:40:25 PM 34.9486 -95.8911 190° South 170 196 9,900  Level Fort Worth Center
Sun 04:41:25 PM 34.9069 -95.9044 195° South 170 196 9,900  Level Fort Worth Center
Sun 04:42:26 PM 34.8656 -95.9156 192° South 159 183 9,900  Level Fort Worth Center
Sun 04:43:26 PM 34.8217 -95.9264 191° South 159 183 9,900  Level Fort Worth Center
Sun 04:44:25 PM 34.7803 -95.9397 195° South 159 183 9,900  Level Fort Worth Center
Sun 04:45:26 PM 34.7367 -95.9506 192° South 159 183 9,900  Level Fort Worth Center
Sun 04:46:25 PM 34.6969 -95.9589 190° South 159 183 9,900  Level Fort Worth Center
Sun 04:47:25 PM 34.6533 -95.9722 194° South 159 183 9,900  Level Fort Worth Center
Sun 04:48:26 PM 34.6097 -95.9856 194° South 165 190 9,900  Level Fort Worth Center
Sun 04:49:26 PM 34.5681 -95.9961 192° South 159 183 9,900  Level Fort Worth Center
Sun 04:50:26 PM 34.5264 -96.0069 192° South 159 183 9,900  Level Fort Worth Center
Sun 04:51:26 PM 34.4806 -96.0178 191° South 165 190 9,900  Level Fort Worth Center
Sun 04:52:25 PM 34.4369 -96.0311 194° South 160 184 9,900  Level Fort Worth Center
Sun 04:53:26 PM 34.3956 -96.0444 195° South 160 184 9,900  Level Fort Worth Center
Sun 04:54:26 PM 34.3517 -96.0525 189° South 160 184 9,900  Level Fort Worth Center
Sun 04:55:26 PM 34.3100 -96.0633 192° South 160 184 9,900  Level Fort Worth Center
Sun 04:56:25 PM 34.2664 -96.0767 194° South 160 184 9,900  Level Fort Worth Center
Sun 04:57:26 PM 34.2228 -96.0847 189° South 160 184 9,900  Level Fort Worth Center
Sun 04:58:25 PM 34.1750 -96.1031 198° South 166 191 9,900  Level Fort Worth Center
Sun 04:59:25 PM 34.1333 -96.1114 189° South 160 184 9,900  Level Fort Worth Center
Sun 05:00:26 PM 34.1000 -96.1192 191° South 160 184 9,900 -150 Level Fort Worth Center
Sun 05:01:25 PM 34.0478 -96.1325 192° South 160 184 9,600 -353 Descending Fort Worth Center
Sun 05:02:25 PM 34.0000 -96.1458 193° South 165 190 9,200 -496 Descending Fort Worth Center
Sun 05:03:26 PM 33.9500 -96.1542 188° South 170 196 8,600 -600 Descending Fort Worth Center
Sun 05:04:25 PM 33.9022 -96.1697 195° South 181 208 8,000 -550 Descending Fort Worth Center
Sun 05:05:26 PM 33.8522 -96.1831 192° South 181 208 7,500 -446 Descending Fort Worth Center
Sun 05:06:26 PM 33.8086 -96.1961 194° South 181 208 7,100 -500 Descending Fort Worth Center
Sun 05:07:26 PM 33.7544 -96.2094 192° South 181 208 6,500 -500 Descending Fort Worth Center
Sun 05:08:26 PM 33.7086 -96.2200 191° South 181 208 6,100 -250 Descending Fort Worth Center
Sun 05:09:26 PM 33.6586 -96.2331 192° South 181 208 6,000 -100 Descending Fort Worth Center
Sun 05:10:26 PM 33.6192 -96.2461 195° South 181 208 5,900  Descending Fort Worth Center
Sun 05:11:26 PM 33.5692 -96.2592 192° South 176 203 6,000  Climbing Fort Worth Center
Sun 05:12:26 PM 33.5275 -96.2697 192° South 176 203 5,900 -50 Descending Fort Worth Center
Sun 05:13:25 PM 33.4794 -96.2803 190° South 171 197 5,900  Level Fort Worth Center
Sun 05:14:26 PM 33.4400 -96.2908 193° South 171 197 5,900  Level Fort Worth Center
Sun 05:15:26 PM 33.3922 -96.3039 193° South 166 191 5,900  Level Fort Worth Center
Sun 05:16:25 PM 33.3506 -96.3142 192° South 160 184 5,900  Level Fort Worth Center
Sun 05:17:26 PM 33.3025 -96.3272 193° South 160 184 5,900  Level Fort Worth Center
Sun 05:18:26 PM 33.2631 -96.3403 195° South 165 190 5,900 -300 Level Fort Worth Center
Sun 05:19:26 PM 33.2194 -96.3756 214° Southwest 167 192 5,300 -471 Descending Fort Worth Center
Sun 05:20:08 PM 33.1833 -96.3833 190° South 181 208 5,100 -176 Descending Dallas / Fort Worth TRACON
Sun 05:21:08 PM 33.1333 -96.4000 196° South 167 192 5,000 -400 Descending Dallas / Fort Worth TRACON
Sun 05:22:08 PM 33.1000 -96.4167 203° Southwest 182 209 4,300 -600 Descending Dallas / Fort Worth TRACON
Sun 05:23:08 PM 33.0500 -96.4333 196° South 176 203 3,800 -304 Descending Dallas / Fort Worth TRACON
Sun 05:24:26 PM 32.9906 -96.4550 197° South 177 204 3,600 -154 Descending Fort Worth Center
Sun 05:29:00 PM 32.9252 -96.4707 191° South  Level FlightAware Approximate
Sun 05:36:00 PM 32.7470 -96.5304 194° South  Level Estimated
Sun 05:37:00 PM 32.7470 -96.5304 194° South  Level Estimated
Sun 05:38:00 PM 32.7470 -96.5304 194° South  Level Estimated
Sun 05:39:00 PM 32.7470 -96.5304 194° South  Level Estimated
Sun 05:40:00 PM 32.7470 -96.5304 194° South  Level Estimated
Sun 05:41:00 PM 32.7470 -96.5304 194° South  Level Estimated
Sun 05:42:00 PM 32.7470 -96.5304 194° South  Level Estimated
Sun 05:43:00 PM 32.7470 -96.5304 194° South  Level Estimated
Sun 05:44:00 PM 32.7470 -96.5304 194° South  Level Estimated
Sun 05:45:00 PM 32.7470 -96.5304 194° South  Level Estimated
Sun 05:46:00 PM 32.7470 -96.5304 194° South  Level Estimated
Sun 05:47:00 PM 32.7470 -96.5304 194° South  Level Estimated

Login

Don't have an account? Register now (free) for customized features, flight alerts, and more!